sensor_id;sensor_type;location;lat;lon;timestamp;pressure;altitude;pressure_sealevel;temperature;humidity
55685;BME280;41883;49.544;8.646;2022-10-16T00:01:05;100280.56;;;15.76;nan
55685;BME280;41883;49.544;8.646;2022-10-16T00:03:31;100287.38;;;15.79;nan
55685;BME280;41883;49.544;8.646;2022-10-16T00:05:59;100289.63;;;15.82;nan
55685;BME280;41883;49.544;8.646;2022-10-16T00:08:25;100293.13;;;15.82;nan
55685;BME280;41883;49.544;8.646;2022-10-16T00:10:50;100284.94;;;15.84;nan
55685;BME280;41883;49.544;8.646;2022-10-16T00:13:16;100282.91;;;15.86;nan
55685;BME280;41883;49.544;8.646;2022-10-16T00:15:43;100281.88;;;15.87;nan
55685;BME280;41883;49.544;8.646;2022-10-16T00:18:09;100288.88;;;15.88;nan
55685;BME280;41883;49.544;8.646;2022-10-16T00:20:36;100286.00;;;15.89;nan
55685;BME280;41883;49.544;8.646;2022-10-16T00:23:04;100279.47;;;15.92;nan
55685;BME280;41883;49.544;8.646;2022-10-16T00:25:30;100275.63;;;15.95;nan
55685;BME280;41883;49.544;8.646;2022-10-16T00:27:58;100280.94;;;15.95;nan
55685;BME280;41883;49.544;8.646;2022-10-16T00:30:23;100283.59;;;15.95;nan
55685;BME280;41883;49.544;8.646;2022-10-16T00:32:49;100286.28;;;15.95;nan
55685;BME280;41883;49.544;8.646;2022-10-16T00:35:14;100291.63;;;15.95;nan
55685;BME280;41883;49.544;8.646;2022-10-16T00:37:40;100285.66;;;15.92;nan
55685;BME280;41883;49.544;8.646;2022-10-16T00:40:07;100291.16;;;15.91;nan
55685;BME280;41883;49.544;8.646;2022-10-16T00:42:33;100278.00;;;15.89;nan
55685;BME280;41883;49.544;8.646;2022-10-16T00:45:00;100289.06;;;15.86;nan
55685;BME280;41883;49.544;8.646;2022-10-16T00:47:30;100284.75;;;15.85;nan
55685;BME280;41883;49.544;8.646;2022-10-16T00:50:16;100274.47;;;15.82;nan
55685;BME280;41883;49.544;8.646;2022-10-16T00:52:47;100270.16;;;15.81;nan
55685;BME280;41883;49.544;8.646;2022-10-16T00:55:14;100276.53;;;15.80;nan
55685;BME280;41883;49.544;8.646;2022-10-16T00:57:39;100285.50;;;15.79;nan
55685;BME280;41883;49.544;8.646;2022-10-16T01:00:07;100286.72;;;15.77;nan
55685;BME280;41883;49.544;8.646;2022-10-16T01:02:33;100290.22;;;15.77;nan
55685;BME280;41883;49.544;8.646;2022-10-16T01:04:59;100292.50;;;15.80;nan
55685;BME280;41883;49.544;8.646;2022-10-16T01:10:25;100285.56;;;15.86;nan
55685;BME280;41883;49.544;8.646;2022-10-16T01:12:58;100290.72;;;15.87;nan
55685;BME280;41883;49.544;8.646;2022-10-16T01:15:34;100295.03;;;15.88;nan
55685;BME280;41883;49.544;8.646;2022-10-16T01:21:02;100287.66;;;15.90;nan
55685;BME280;41883;49.544;8.646;2022-10-16T01:27:00;100296.66;;;15.89;nan
55685;BME280;41883;49.544;8.646;2022-10-16T01:32:02;100304.09;;;15.94;nan
55685;BME280;41883;49.544;8.646;2022-10-16T01:34:43;100296.94;;;15.95;nan
55685;BME280;41883;49.544;8.646;2022-10-16T01:37:27;100308.44;;;15.95;nan
55685;BME280;41883;49.544;8.646;2022-10-16T01:39:55;100309.88;;;15.98;nan
55685;BME280;41883;49.544;8.646;2022-10-16T01:42:35;100307.59;;;15.95;nan
55685;BME280;41883;49.544;8.646;2022-10-16T01:45:02;100317.06;;;15.97;nan
55685;BME280;41883;49.544;8.646;2022-10-16T01:47:30;100319.28;;;15.93;nan
55685;BME280;41883;49.544;8.646;2022-10-16T01:49:57;100319.09;;;15.95;nan
55685;BME280;41883;49.544;8.646;2022-10-16T01:52:26;100316.44;;;15.95;nan
55685;BME280;41883;49.544;8.646;2022-10-16T01:54:54;100324.63;;;15.93;nan
55685;BME280;41883;49.544;8.646;2022-10-16T01:57:20;100331.78;;;15.93;nan
55685;BME280;41883;49.544;8.646;2022-10-16T01:59:52;100329.13;;;15.93;nan
55685;BME280;41883;49.544;8.646;2022-10-16T02:02:21;100321.94;;;15.93;nan
55685;BME280;41883;49.544;8.646;2022-10-16T02:05:23;100306.59;;;15.96;nan
55685;BME280;41883;49.544;8.646;2022-10-16T02:07:47;100313.94;;;15.93;nan
55685;BME280;41883;49.544;8.646;2022-10-16T02:10:12;100316.44;;;15.95;nan
55685;BME280;41883;49.544;8.646;2022-10-16T02:12:40;100305.94;;;15.93;nan
55685;BME280;41883;49.544;8.646;2022-10-16T02:15:08;100306.75;;;15.94;nan
55685;BME280;41883;49.544;8.646;2022-10-16T02:17:33;100306.97;;;15.92;nan
55685;BME280;41883;49.544;8.646;2022-10-16T02:19:59;100308.59;;;15.93;nan
55685;BME280;41883;49.544;8.646;2022-10-16T02:22:35;100304.31;;;15.92;nan
55685;BME280;41883;49.544;8.646;2022-10-16T02:25:22;100300.78;;;15.92;nan
55685;BME280;41883;49.544;8.646;2022-10-16T02:28:01;100290.13;;;15.92;nan
55685;BME280;41883;49.544;8.646;2022-10-16T02:30:32;100293.00;;;15.90;nan
55685;BME280;41883;49.544;8.646;2022-10-16T02:33:00;100302.22;;;15.88;nan
55685;BME280;41883;49.544;8.646;2022-10-16T02:35:27;100307.34;;;15.89;nan
55685;BME280;41883;49.544;8.646;2022-10-16T02:37:54;100299.97;;;15.91;nan
55685;BME280;41883;49.544;8.646;2022-10-16T02:40:21;100298.97;;;15.92;nan
55685;BME280;41883;49.544;8.646;2022-10-16T02:42:50;100310.47;;;15.93;nan
55685;BME280;41883;49.544;8.646;2022-10-16T02:45:18;100312.94;;;15.95;nan
55685;BME280;41883;49.544;8.646;2022-10-16T02:47:44;100302.28;;;15.95;nan
55685;BME280;41883;49.544;8.646;2022-10-16T02:50:09;100307.41;;;15.96;nan
55685;BME280;41883;49.544;8.646;2022-10-16T02:52:35;100305.75;;;15.95;nan
55685;BME280;41883;49.544;8.646;2022-10-16T02:55:00;100304.94;;;15.95;nan
55685;BME280;41883;49.544;8.646;2022-10-16T02:57:25;100306.97;;;15.92;nan
55685;BME280;41883;49.544;8.646;2022-10-16T02:59:51;100305.13;;;15.93;nan
55685;BME280;41883;49.544;8.646;2022-10-16T03:02:16;100317.63;;;15.92;nan
55685;BME280;41883;49.544;8.646;2022-10-16T03:04:41;100320.31;;;15.92;nan
55685;BME280;41883;49.544;8.646;2022-10-16T03:07:07;100325.25;;;15.96;nan
55685;BME280;41883;49.544;8.646;2022-10-16T03:09:32;100326.53;;;16.00;nan
55685;BME280;41883;49.544;8.646;2022-10-16T03:11:58;100327.34;;;16.00;nan
55685;BME280;41883;49.544;8.646;2022-10-16T03:14:23;100313.81;;;16.02;nan
55685;BME280;41883;49.544;8.646;2022-10-16T03:16:48;100295.16;;;16.02;nan
55685;BME280;41883;49.544;8.646;2022-10-16T03:19:16;100296.34;;;15.99;nan
55685;BME280;41883;49.544;8.646;2022-10-16T03:21:41;100306.41;;;15.97;nan
55685;BME280;41883;49.544;8.646;2022-10-16T03:24:06;100313.38;;;15.98;nan
55685;BME280;41883;49.544;8.646;2022-10-16T03:26:31;100309.66;;;15.99;nan
55685;BME280;41883;49.544;8.646;2022-10-16T03:28:57;100315.00;;;15.99;nan
55685;BME280;41883;49.544;8.646;2022-10-16T03:31:22;100316.50;;;16.02;nan
55685;BME280;41883;49.544;8.646;2022-10-16T03:33:47;100319.97;;;16.02;nan
55685;BME280;41883;49.544;8.646;2022-10-16T03:36:12;100315.47;;;16.03;nan
55685;BME280;41883;49.544;8.646;2022-10-16T03:38:38;100315.06;;;16.06;nan
55685;BME280;41883;49.544;8.646;2022-10-16T03:41:03;100314.06;;;16.07;nan
55685;BME280;41883;49.544;8.646;2022-10-16T03:43:29;100312.03;;;16.09;nan
55685;BME280;41883;49.544;8.646;2022-10-16T03:45:54;100309.97;;;16.11;nan
55685;BME280;41883;49.544;8.646;2022-10-16T03:48:19;100320.28;;;16.14;nan
55685;BME280;41883;49.544;8.646;2022-10-16T03:50:45;100317.63;;;16.14;nan
55685;BME280;41883;49.544;8.646;2022-10-16T03:53:11;100319.88;;;16.17;nan
55685;BME280;41883;49.544;8.646;2022-10-16T03:55:36;100321.53;;;16.18;nan
55685;BME280;41883;49.544;8.646;2022-10-16T03:58:02;100327.72;;;16.19;nan
55685;BME280;41883;49.544;8.646;2022-10-16T04:00:28;100322.78;;;16.22;nan
55685;BME280;41883;49.544;8.646;2022-10-16T04:02:54;100334.69;;;16.20;nan
55685;BME280;41883;49.544;8.646;2022-10-16T04:05:19;100343.72;;;16.19;nan
55685;BME280;41883;49.544;8.646;2022-10-16T04:07:44;100342.03;;;16.18;nan
55685;BME280;41883;49.544;8.646;2022-10-16T04:10:09;100343.91;;;16.17;nan
55685;BME280;41883;49.544;8.646;2022-10-16T04:12:35;100330.56;;;16.17;nan
55685;BME280;41883;49.544;8.646;2022-10-16T04:15:00;100334.50;;;16.21;nan
55685;BME280;41883;49.544;8.646;2022-10-16T04:17:25;100343.31;;;16.22;nan
55685;BME280;41883;49.544;8.646;2022-10-16T04:19:51;100341.47;;;16.22;nan
55685;BME280;41883;49.544;8.646;2022-10-16T04:22:16;100350.94;;;16.25;nan
55685;BME280;41883;49.544;8.646;2022-10-16T04:24:41;100348.25;;;16.25;nan
55685;BME280;41883;49.544;8.646;2022-10-16T04:27:07;100343.75;;;16.25;nan
55685;BME280;41883;49.544;8.646;2022-10-16T04:29:32;100366.75;;;16.26;nan
55685;BME280;41883;49.544;8.646;2022-10-16T04:31:57;100367.56;;;16.27;nan
55685;BME280;41883;49.544;8.646;2022-10-16T04:34:22;100366.75;;;16.26;nan
55685;BME280;41883;49.544;8.646;2022-10-16T04:36:48;100358.53;;;16.28;nan
55685;BME280;41883;49.544;8.646;2022-10-16T04:39:16;100349.06;;;16.25;nan
55685;BME280;41883;49.544;8.646;2022-10-16T04:41:41;100338.78;;;16.22;nan
55685;BME280;41883;49.544;8.646;2022-10-16T04:44:07;100350.88;;;16.18;nan
55685;BME280;41883;49.544;8.646;2022-10-16T04:46:32;100356.59;;;16.15;nan
55685;BME280;41883;49.544;8.646;2022-10-16T04:48:58;100354.31;;;16.12;nan
55685;BME280;41883;49.544;8.646;2022-10-16T04:51:23;100353.50;;;16.11;nan
55685;BME280;41883;49.544;8.646;2022-10-16T04:53:50;100349.38;;;16.09;nan
55685;BME280;41883;49.544;8.646;2022-10-16T04:56:15;100349.38;;;16.09;nan
55685;BME280;41883;49.544;8.646;2022-10-16T04:58:41;100343.59;;;16.05;nan
55685;BME280;41883;49.544;8.646;2022-10-16T05:01:06;100347.28;;;16.04;nan
55685;BME280;41883;49.544;8.646;2022-10-16T05:03:32;100357.09;;;16.04;nan
55685;BME280;41883;49.544;8.646;2022-10-16T05:05:57;100348.09;;;16.05;nan
55685;BME280;41883;49.544;8.646;2022-10-16T05:08:22;100338.44;;;16.04;nan
55685;BME280;41883;49.544;8.646;2022-10-16T05:10:47;100337.84;;;16.02;nan
55685;BME280;41883;49.544;8.646;2022-10-16T05:13:13;100337.38;;;15.98;nan
55685;BME280;41883;49.544;8.646;2022-10-16T05:15:38;100346.19;;;15.99;nan
55685;BME280;41883;49.544;8.646;2022-10-16T05:18:03;100351.34;;;16.00;nan
55685;BME280;41883;49.544;8.646;2022-10-16T05:20:29;100355.84;;;16.00;nan
55685;BME280;41883;49.544;8.646;2022-10-16T05:22:54;100346.81;;;16.01;nan
55685;BME280;41883;49.544;8.646;2022-10-16T05:25:19;100344.16;;;16.01;nan
55685;BME280;41883;49.544;8.646;2022-10-16T05:27:48;100344.63;;;16.04;nan
55685;BME280;41883;49.544;8.646;2022-10-16T05:30:14;100335.97;;;16.02;nan
55685;BME280;41883;49.544;8.646;2022-10-16T05:32:40;100341.09;;;16.04;nan
55685;BME280;41883;49.544;8.646;2022-10-16T05:35:05;100324.28;;;16.03;nan
55685;BME280;41883;49.544;8.646;2022-10-16T05:37:31;100315.06;;;16.06;nan
55685;BME280;41883;49.544;8.646;2022-10-16T05:39:57;100325.94;;;16.04;nan
55685;BME280;41883;49.544;8.646;2022-10-16T05:42:22;100332.91;;;16.05;nan
55685;BME280;41883;49.544;8.646;2022-10-16T05:44:47;100333.69;;;15.99;nan
55685;BME280;41883;49.544;8.646;2022-10-16T05:47:13;100330.75;;;15.94;nan
55685;BME280;41883;49.544;8.646;2022-10-16T05:49:39;100328.31;;;15.92;nan
55685;BME280;41883;49.544;8.646;2022-10-16T05:52:04;100336.09;;;15.94;nan
55685;BME280;41883;49.544;8.646;2022-10-16T05:54:29;100354.75;;;15.94;nan
55685;BME280;41883;49.544;8.646;2022-10-16T05:56:55;100359.53;;;15.99;nan
55685;BME280;41883;49.544;8.646;2022-10-16T05:59:20;100374.53;;;16.00;nan
55685;BME280;41883;49.544;8.646;2022-10-16T06:01:45;100381.69;;;15.99;nan
55685;BME280;41883;49.544;8.646;2022-10-16T06:04:10;100393.84;;;16.02;nan
55685;BME280;41883;49.544;8.646;2022-10-16T06:06:36;100389.75;;;16.06;nan
55685;BME280;41883;49.544;8.646;2022-10-16T06:09:02;100380.53;;;16.08;nan
55685;BME280;41883;49.544;8.646;2022-10-16T06:11:30;100379.72;;;16.08;nan
55685;BME280;41883;49.544;8.646;2022-10-16T06:13:58;100388.50;;;16.02;nan
55685;BME280;41883;49.544;8.646;2022-10-16T06:16:25;100398.88;;;15.97;nan
55685;BME280;41883;49.544;8.646;2022-10-16T06:18:52;100394.59;;;15.96;nan
55685;BME280;41883;49.544;8.646;2022-10-16T06:21:20;100405.44;;;15.94;nan
55685;BME280;41883;49.544;8.646;2022-10-16T06:23:47;100404.63;;;15.93;nan
55685;BME280;41883;49.544;8.646;2022-10-16T06:26:14;100415.91;;;15.96;nan
55685;BME280;41883;49.544;8.646;2022-10-16T06:28:40;100421.25;;;15.96;nan
55685;BME280;41883;49.544;8.646;2022-10-16T06:31:07;100415.91;;;15.96;nan
55685;BME280;41883;49.544;8.646;2022-10-16T06:33:33;100424.31;;;15.92;nan
55685;BME280;41883;49.544;8.646;2022-10-16T06:36:10;100426.75;;;15.94;nan
55685;BME280;41883;49.544;8.646;2022-10-16T06:38:36;100422.00;;;15.89;nan
55685;BME280;41883;49.544;8.646;2022-10-16T06:41:01;100424.31;;;15.92;nan
55685;BME280;41883;49.544;8.646;2022-10-16T06:43:29;100418.97;;;15.92;nan
55685;BME280;41883;49.544;8.646;2022-10-16T06:45:58;100414.47;;;15.93;nan
55685;BME280;41883;49.544;8.646;2022-10-16T06:48:24;100425.56;;;15.97;nan
55685;BME280;41883;49.544;8.646;2022-10-16T06:51:00;100428.06;;;15.98;nan
55685;BME280;41883;49.544;8.646;2022-10-16T06:53:27;100432.56;;;15.98;nan
55685;BME280;41883;49.544;8.646;2022-10-16T06:55:53;100436.22;;;15.97;nan
55685;BME280;41883;49.544;8.646;2022-10-16T06:58:18;100434.03;;;16.00;nan
55685;BME280;41883;49.544;8.646;2022-10-16T07:00:44;100441.25;;;16.06;nan
55685;BME280;41883;49.544;8.646;2022-10-16T07:03:09;100450.59;;;16.17;nan
55685;BME280;41883;49.544;8.646;2022-10-16T07:05:42;100454.16;;;16.24;nan
55685;BME280;41883;49.544;8.646;2022-10-16T07:08:08;100459.75;;;16.29;nan
55685;BME280;41883;49.544;8.646;2022-10-16T07:10:34;100466.16;;;16.35;nan
55685;BME280;41883;49.544;8.646;2022-10-16T07:12:59;100466.59;;;16.39;nan
55685;BME280;41883;49.544;8.646;2022-10-16T07:15:25;100465.84;;;16.45;nan
55685;BME280;41883;49.544;8.646;2022-10-16T07:17:51;100483.38;;;16.54;nan
55685;BME280;41883;49.544;8.646;2022-10-16T07:20:16;100477.66;;;16.57;nan
55685;BME280;41883;49.544;8.646;2022-10-16T07:22:42;100483.44;;;16.61;nan
55685;BME280;41883;49.544;8.646;2022-10-16T07:25:07;100482.22;;;16.63;nan
55685;BME280;41883;49.544;8.646;2022-10-16T07:27:33;100482.91;;;16.72;nan
55685;BME280;41883;49.544;8.646;2022-10-16T07:29:59;100497.66;;;16.89;nan
55685;BME280;41883;49.544;8.646;2022-10-16T07:32:24;100499.69;;;17.15;nan
55685;BME280;41883;49.544;8.646;2022-10-16T07:34:51;100495.25;;;17.29;nan
55685;BME280;41883;49.544;8.646;2022-10-16T07:37:16;100496.75;;;17.38;nan
55685;BME280;41883;49.544;8.646;2022-10-16T07:39:41;100502.34;;;17.44;nan
55685;BME280;41883;49.544;8.646;2022-10-16T07:42:06;100510.63;;;17.55;nan
55685;BME280;41883;49.544;8.646;2022-10-16T07:44:32;100511.91;;;17.66;nan
55685;BME280;41883;49.544;8.646;2022-10-16T07:46:58;100511.94;;;17.73;nan
55685;BME280;41883;49.544;8.646;2022-10-16T07:49:23;100511.56;;;17.76;nan
55685;BME280;41883;49.544;8.646;2022-10-16T07:51:48;100514.59;;;17.73;nan
55685;BME280;41883;49.544;8.646;2022-10-16T07:54:14;100521.78;;;17.66;nan
55685;BME280;41883;49.544;8.646;2022-10-16T07:56:39;100518.47;;;17.63;nan
55685;BME280;41883;49.544;8.646;2022-10-16T07:59:04;100528.34;;;17.63;nan
55685;BME280;41883;49.544;8.646;2022-10-16T08:01:29;100524.44;;;17.66;nan
55685;BME280;41883;49.544;8.646;2022-10-16T08:03:55;100528.38;;;17.70;nan
55685;BME280;41883;49.544;8.646;2022-10-16T08:06:21;100522.41;;;17.68;nan
55685;BME280;41883;49.544;8.646;2022-10-16T08:08:47;100531.03;;;17.63;nan
55685;BME280;41883;49.544;8.646;2022-10-16T08:11:13;100541.44;;;17.51;nan
55685;BME280;41883;49.544;8.646;2022-10-16T08:13:39;100545.50;;;17.40;nan
55685;BME280;41883;49.544;8.646;2022-10-16T08:16:04;100550.41;;;17.37;nan
55685;BME280;41883;49.544;8.646;2022-10-16T08:18:36;100546.22;;;17.28;nan
55685;BME280;41883;49.544;8.646;2022-10-16T08:21:03;100536.53;;;17.20;nan
55685;BME280;41883;49.544;8.646;2022-10-16T08:23:29;100538.38;;;17.19;nan
55685;BME280;41883;49.544;8.646;2022-10-16T08:25:55;100545.56;;;17.19;nan
55685;BME280;41883;49.544;8.646;2022-10-16T08:28:21;100545.63;;;17.26;nan
55685;BME280;41883;49.544;8.646;2022-10-16T08:30:47;100552.59;;;17.27;nan
55685;BME280;41883;49.544;8.646;2022-10-16T08:33:12;100547.91;;;17.29;nan
55685;BME280;41883;49.544;8.646;2022-10-16T08:35:37;100549.41;;;17.38;nan
55685;BME280;41883;49.544;8.646;2022-10-16T08:38:04;100551.78;;;17.54;nan
55685;BME280;41883;49.544;8.646;2022-10-16T08:40:31;100557.34;;;17.59;nan
55685;BME280;41883;49.544;8.646;2022-10-16T08:43:28;100562.06;;;17.57;nan
55685;BME280;41883;49.544;8.646;2022-10-16T08:48:45;100571.34;;;17.61;nan
55685;BME280;41883;49.544;8.646;2022-10-16T08:51:18;100583.06;;;17.60;nan
55685;BME280;41883;49.544;8.646;2022-10-16T08:53:49;100590.22;;;17.53;nan
55685;BME280;41883;49.544;8.646;2022-10-16T08:56:14;100625.31;;;17.44;nan
55685;BME280;41883;49.544;8.646;2022-10-16T08:58:40;100646.16;;;17.27;nan
55685;BME280;41883;49.544;8.646;2022-10-16T09:01:12;100680.97;;;17.12;nan
55685;BME280;41883;49.544;8.646;2022-10-16T09:06:59;100649.16;;;16.59;nan
55685;BME280;41883;49.544;8.646;2022-10-16T09:22:43;100646.16;;;16.47;nan
55685;BME280;41883;49.544;8.646;2022-10-16T09:25:17;100655.13;;;16.61;nan
55685;BME280;41883;49.544;8.646;2022-10-16T09:27:46;100653.94;;;16.64;nan
55685;BME280;41883;49.544;8.646;2022-10-16T09:30:19;100641.16;;;16.59;nan
55685;BME280;41883;49.544;8.646;2022-10-16T09:32:48;100640.28;;;16.73;nan
55685;BME280;41883;49.544;8.646;2022-10-16T09:35:27;100629.50;;;17.03;nan
55685;BME280;41883;49.544;8.646;2022-10-16T09:37:56;100634.34;;;17.43;nan
55685;BME280;41883;49.544;8.646;2022-10-16T09:40:33;100634.03;;;17.80;nan
55685;BME280;41883;49.544;8.646;2022-10-16T09:45:40;100637.94;;;18.87;nan
55685;BME280;41883;49.544;8.646;2022-10-16T09:48:11;100635.94;;;19.29;nan
55685;BME280;41883;49.544;8.646;2022-10-16T09:50:36;100635.91;;;19.63;nan
55685;BME280;41883;49.544;8.646;2022-10-16T09:53:03;100648.09;;;19.79;nan
55685;BME280;41883;49.544;8.646;2022-10-16T09:55:29;100634.88;;;19.84;nan
55685;BME280;41883;49.544;8.646;2022-10-16T09:57:55;100637.19;;;19.73;nan
55685;BME280;41883;49.544;8.646;2022-10-16T10:00:22;100648.06;;;19.85;nan
55685;BME280;41883;49.544;8.646;2022-10-16T10:02:48;100649.09;;;19.91;nan
55685;BME280;41883;49.544;8.646;2022-10-16T10:05:33;100640.44;;;19.89;nan
55685;BME280;41883;49.544;8.646;2022-10-16T10:08:00;100654.91;;;19.88;nan
55685;BME280;41883;49.544;8.646;2022-10-16T10:10:32;100646.38;;;20.04;nan
55685;BME280;41883;49.544;8.646;2022-10-16T10:12:58;100639.75;;;20.07;nan
55685;BME280;41883;49.544;8.646;2022-10-16T10:15:24;100647.16;;;20.11;nan
55685;BME280;41883;49.544;8.646;2022-10-16T10:17:55;100647.59;;;20.08;nan
55685;BME280;41883;49.544;8.646;2022-10-16T10:20:26;100646.69;;;20.28;nan
55685;BME280;41883;49.544;8.646;2022-10-16T10:22:53;100639.19;;;20.88;nan
55685;BME280;41883;49.544;8.646;2022-10-16T10:28:15;100649.63;;;22.52;nan
55685;BME280;41883;49.544;8.646;2022-10-16T10:33:31;100663.91;;;22.83;nan
55685;BME280;41883;49.544;8.646;2022-10-16T10:36:25;100653.31;;;23.00;nan
55685;BME280;41883;49.544;8.646;2022-10-16T10:38:57;100651.09;;;22.66;nan
55685;BME280;41883;49.544;8.646;2022-10-16T10:46:32;100644.88;;;22.66;nan
55685;BME280;41883;49.544;8.646;2022-10-16T10:51:53;100640.59;;;23.19;nan
55685;BME280;41883;49.544;8.646;2022-10-16T10:54:38;100645.03;;;24.07;nan
55685;BME280;41883;49.544;8.646;2022-10-16T10:57:28;100640.66;;;26.33;nan
55685;BME280;41883;49.544;8.646;2022-10-16T11:02:52;100630.59;;;29.70;nan
55685;BME280;41883;49.544;8.646;2022-10-16T11:08:08;100633.97;;;31.01;nan
55685;BME280;41883;49.544;8.646;2022-10-16T11:10:44;100623.34;;;30.99;nan
55685;BME280;41883;49.544;8.646;2022-10-16T11:13:19;100631.91;;;30.87;nan
55685;BME280;41883;49.544;8.646;2022-10-16T11:15:48;100632.19;;;30.41;nan
55685;BME280;41883;49.544;8.646;2022-10-16T11:21:03;100631.91;;;28.50;nan
55685;BME280;41883;49.544;8.646;2022-10-16T11:23:43;100624.41;;;27.57;nan
55685;BME280;41883;49.544;8.646;2022-10-16T11:26:17;100629.44;;;26.73;nan
55685;BME280;41883;49.544;8.646;2022-10-16T11:28:49;100632.31;;;25.95;nan
55685;BME280;41883;49.544;8.646;2022-10-16T11:34:09;100636.91;;;25.05;nan
55685;BME280;41883;49.544;8.646;2022-10-16T11:36:42;100639.28;;;24.56;nan
55685;BME280;41883;49.544;8.646;2022-10-16T11:39:26;100636.91;;;24.19;nan
55685;BME280;41883;49.544;8.646;2022-10-16T11:42:03;100640.94;;;24.05;nan
55685;BME280;41883;49.544;8.646;2022-10-16T11:47:41;100615.28;;;23.43;nan
55685;BME280;41883;49.544;8.646;2022-10-16T11:50:20;100618.41;;;23.64;nan
55685;BME280;41883;49.544;8.646;2022-10-16T11:55:18;100627.56;;;23.16;nan
55685;BME280;41883;49.544;8.646;2022-10-16T11:57:48;100622.84;;;22.99;nan
55685;BME280;41883;49.544;8.646;2022-10-16T12:00:25;100622.09;;;22.92;nan
55685;BME280;41883;49.544;8.646;2022-10-16T12:03:10;100624.78;;;22.92;nan
55685;BME280;41883;49.544;8.646;2022-10-16T12:05:57;100625.25;;;22.89;nan
55685;BME280;41883;49.544;8.646;2022-10-16T12:08:25;100632.53;;;22.88;nan
55685;BME280;41883;49.544;8.646;2022-10-16T12:10:51;100618.00;;;22.89;nan
55685;BME280;41883;49.544;8.646;2022-10-16T12:13:37;100620.53;;;23.03;nan
55685;BME280;41883;49.544;8.646;2022-10-16T12:16:22;100624.50;;;23.00;nan
55685;BME280;41883;49.544;8.646;2022-10-16T12:18:49;100630.31;;;22.97;nan
55685;BME280;41883;49.544;8.646;2022-10-16T12:21:16;100624.91;;;22.97;nan
55685;BME280;41883;49.544;8.646;2022-10-16T12:23:51;100626.19;;;22.95;nan
55685;BME280;41883;49.544;8.646;2022-10-16T12:26:28;100628.44;;;22.86;nan
55685;BME280;41883;49.544;8.646;2022-10-16T12:28:55;100627.72;;;22.79;nan
55685;BME280;41883;49.544;8.646;2022-10-16T12:31:21;100629.91;;;22.70;nan
55685;BME280;41883;49.544;8.646;2022-10-16T12:33:58;100621.59;;;22.72;nan
55685;BME280;41883;49.544;8.646;2022-10-16T12:36:31;100614.59;;;22.94;nan
55685;BME280;41883;49.544;8.646;2022-10-16T12:38:57;100610.88;;;23.07;nan
55685;BME280;41883;49.544;8.646;2022-10-16T12:41:29;100616.28;;;23.07;nan
55685;BME280;41883;49.544;8.646;2022-10-16T12:43:55;100623.28;;;22.96;nan
55685;BME280;41883;49.544;8.646;2022-10-16T12:51:41;100615.56;;;22.58;nan
55685;BME280;41883;49.544;8.646;2022-10-16T13:02:23;100602.84;;;22.77;nan
55685;BME280;41883;49.544;8.646;2022-10-16T13:10:40;100620.28;;;22.62;nan
55685;BME280;41883;49.544;8.646;2022-10-16T13:15:41;100624.84;;;22.74;nan
55685;BME280;41883;49.544;8.646;2022-10-16T13:18:16;100626.81;;;22.66;nan
55685;BME280;41883;49.544;8.646;2022-10-16T13:20:59;100621.69;;;22.65;nan
55685;BME280;41883;49.544;8.646;2022-10-16T13:26:46;100618.06;;;22.04;nan
55685;BME280;41883;49.544;8.646;2022-10-16T13:29:15;100622.56;;;21.73;nan
55685;BME280;41883;49.544;8.646;2022-10-16T13:31:42;100620.94;;;21.47;nan
55685;BME280;41883;49.544;8.646;2022-10-16T13:34:13;100618.22;;;21.29;nan
55685;BME280;41883;49.544;8.646;2022-10-16T13:36:50;100631.75;;;21.15;nan
55685;BME280;41883;49.544;8.646;2022-10-16T13:39:26;100624.81;;;21.01;nan
55685;BME280;41883;49.544;8.646;2022-10-16T13:42:05;100633.38;;;20.91;nan
55685;BME280;41883;49.544;8.646;2022-10-16T13:44:39;100634.69;;;20.82;nan
55685;BME280;41883;49.544;8.646;2022-10-16T13:47:05;100639.28;;;20.75;nan
55685;BME280;41883;49.544;8.646;2022-10-16T13:49:31;100626.28;;;20.72;nan
55685;BME280;41883;49.544;8.646;2022-10-16T13:51:59;100624.41;;;20.72;nan
55685;BME280;41883;49.544;8.646;2022-10-16T13:54:26;100634.31;;;20.78;nan
55685;BME280;41883;49.544;8.646;2022-10-16T13:56:54;100639.00;;;20.83;nan
55685;BME280;41883;49.544;8.646;2022-10-16T13:59:26;100633.81;;;20.88;nan
55685;BME280;41883;49.544;8.646;2022-10-16T14:01:55;100637.28;;;20.95;nan
55685;BME280;41883;49.544;8.646;2022-10-16T14:04:23;100631.25;;;21.00;nan
55685;BME280;41883;49.544;8.646;2022-10-16T14:06:50;100631.06;;;20.95;nan
55685;BME280;41883;49.544;8.646;2022-10-16T14:09:29;100635.00;;;20.92;nan
55685;BME280;41883;49.544;8.646;2022-10-16T14:12:03;100642.25;;;20.92;nan
55685;BME280;41883;49.544;8.646;2022-10-16T14:14:41;100636.72;;;20.87;nan
55685;BME280;41883;49.544;8.646;2022-10-16T14:17:18;100637.31;;;20.89;nan
55685;BME280;41883;49.544;8.646;2022-10-16T14:19:48;100629.88;;;20.91;nan
55685;BME280;41883;49.544;8.646;2022-10-16T14:22:36;100636.69;;;20.93;nan
55685;BME280;41883;49.544;8.646;2022-10-16T14:30:55;100629.16;;;20.70;nan
55685;BME280;41883;49.544;8.646;2022-10-16T14:33:24;100631.47;;;20.67;nan
55685;BME280;41883;49.544;8.646;2022-10-16T14:36:02;100629.25;;;20.57;nan
55685;BME280;41883;49.544;8.646;2022-10-16T14:38:28;100645.19;;;20.45;nan
55685;BME280;41883;49.544;8.646;2022-10-16T14:40:57;100631.19;;;20.30;nan
55685;BME280;41883;49.544;8.646;2022-10-16T14:43:49;100628.16;;;20.20;nan
55685;BME280;41883;49.544;8.646;2022-10-16T14:46:19;100628.78;;;20.15;nan
55685;BME280;41883;49.544;8.646;2022-10-16T14:48:50;100622.63;;;20.08;nan
55685;BME280;41883;49.544;8.646;2022-10-16T14:51:17;100622.66;;;19.94;nan
55685;BME280;41883;49.544;8.646;2022-10-16T14:53:42;100614.66;;;19.81;nan